createdAt,value
2023-02-17T00:01:33.219Z,7.14
2023-02-17T00:04:00.488Z,7.17
2023-02-17T00:06:30.253Z,7.19
2023-02-17T00:08:57.967Z,7.20
2023-02-17T00:11:24.632Z,7.15
2023-02-17T00:13:53.158Z,7.22
2023-02-17T00:16:24.492Z,7.26
2023-02-17T00:19:01.868Z,7.26
2023-02-17T00:21:32.068Z,7.27
2023-02-17T00:24:00.209Z,7.27
2023-02-17T00:26:27.224Z,7.18
2023-02-17T00:28:54.335Z,7.21
2023-02-17T00:31:23.433Z,7.29
2023-02-17T00:33:50.298Z,7.41
2023-02-17T00:36:20.012Z,7.48
2023-02-17T00:38:50.306Z,7.42
2023-02-17T00:41:18.531Z,7.46
2023-02-17T00:43:46.040Z,7.47
2023-02-17T00:46:15.066Z,7.50
2023-02-17T00:48:41.791Z,7.46
2023-02-17T00:51:08.855Z,7.44
2023-02-17T00:53:35.760Z,7.50
2023-02-17T00:56:03.853Z,7.49
2023-02-17T00:58:30.758Z,7.47
2023-02-17T01:00:58.650Z,7.48
2023-02-17T01:03:26.428Z,7.54
2023-02-17T01:05:59.779Z,7.60
2023-02-17T01:08:26.330Z,7.62
2023-02-17T01:10:53.927Z,7.60
2023-02-17T01:13:21.197Z,7.59
2023-02-17T01:15:56.861Z,7.60
2023-02-17T01:18:24.760Z,7.55
2023-02-17T01:20:52.625Z,7.63
2023-02-17T01:23:19.505Z,7.64
2023-02-17T01:25:47.787Z,7.64
2023-02-17T01:28:20.182Z,7.60
2023-02-17T01:30:47.837Z,7.63
2023-02-17T01:33:14.846Z,7.65
2023-02-17T01:35:41.504Z,7.55
2023-02-17T01:38:08.027Z,7.62
2023-02-17T01:40:34.607Z,7.65
2023-02-17T01:43:01.179Z,7.64
2023-02-17T01:45:37.180Z,7.62
2023-02-17T01:48:14.521Z,7.54
2023-02-17T01:50:58.357Z,7.49
2023-02-17T01:53:35.550Z,7.54
2023-02-17T01:56:03.653Z,7.57
2023-02-17T01:58:33.455Z,7.64
2023-02-17T02:01:04.917Z,7.70
2023-02-17T02:03:34.662Z,7.68
2023-02-17T02:06:25.669Z,7.73
2023-02-17T02:09:06.650Z,7.70
2023-02-17T02:11:35.546Z,7.74
2023-02-17T02:14:06.780Z,7.76
2023-02-17T02:17:14.408Z,7.70
2023-02-17T02:20:44.452Z,7.63
2023-02-17T02:23:37.203Z,7.64
2023-02-17T02:26:39.708Z,7.72
2023-02-17T02:29:34.628Z,7.72
2023-02-17T02:32:57.016Z,7.74
2023-02-17T02:35:46.380Z,7.82
2023-02-17T02:38:28.801Z,7.74
2023-02-17T02:41:20.132Z,7.71
2023-02-17T02:43:54.730Z,7.83
2023-02-17T02:46:21.422Z,7.90
2023-02-17T02:48:50.714Z,7.92
2023-02-17T02:51:36.005Z,7.76
2023-02-17T02:54:28.503Z,7.81
2023-02-17T02:57:10.657Z,7.81
2023-02-17T03:00:10.962Z,7.77
2023-02-17T03:03:26.251Z,7.69
2023-02-17T03:06:19.816Z,7.72
2023-02-17T03:08:58.535Z,7.75
2023-02-17T03:11:32.673Z,7.89
2023-02-17T03:14:12.703Z,7.88
2023-02-17T03:16:41.478Z,7.77
2023-02-17T03:19:10.632Z,7.76
2023-02-17T03:21:53.257Z,7.71
2023-02-17T03:24:20.345Z,7.77
2023-02-17T03:26:46.880Z,7.83
2023-02-17T03:29:13.436Z,7.87
2023-02-17T03:31:41.636Z,7.90
2023-02-17T03:34:08.747Z,7.92
2023-02-17T03:36:35.314Z,7.95
2023-02-17T03:39:02.047Z,7.96
2023-02-17T03:41:28.654Z,8.01
2023-02-17T03:43:55.375Z,8.00
2023-02-17T03:46:22.051Z,7.98
2023-02-17T03:48:48.661Z,7.94
2023-02-17T03:51:23.889Z,7.93
2023-02-17T03:53:51.717Z,7.92
2023-02-17T03:56:19.443Z,7.90
2023-02-17T03:58:46.099Z,7.98
2023-02-17T04:01:14.112Z,7.96
2023-02-17T04:03:41.840Z,8.04
2023-02-17T04:06:09.939Z,8.07
2023-02-17T04:08:38.083Z,8.04
2023-02-17T04:11:07.427Z,7.92
2023-02-17T04:13:35.000Z,8.01
2023-02-17T04:16:05.534Z,8.06
2023-02-17T04:18:32.957Z,8.00
2023-02-17T04:20:59.806Z,8.01
2023-02-17T04:23:26.617Z,8.03
2023-02-17T04:25:53.095Z,8.04
2023-02-17T04:28:21.558Z,8.09
2023-02-17T04:30:50.671Z,8.15
2023-02-17T04:33:17.652Z,8.12
2023-02-17T04:35:44.301Z,8.13
2023-02-17T04:38:11.612Z,8.12
2023-02-17T04:40:38.940Z,8.13
2023-02-17T04:43:05.968Z,8.12
2023-02-17T04:45:32.501Z,8.17
2023-02-17T04:47:58.958Z,8.22
2023-02-17T04:50:25.566Z,8.21
2023-02-17T04:52:52.175Z,8.20
2023-02-17T04:55:18.869Z,8.20
2023-02-17T04:57:45.347Z,8.24
2023-02-17T05:00:12.661Z,8.27
2023-02-17T05:02:39.473Z,8.26
2023-02-17T05:05:06.539Z,8.22
2023-02-17T05:07:33.081Z,8.20
2023-02-17T05:10:02.400Z,8.22
2023-02-17T05:12:28.861Z,8.21
2023-02-17T05:14:55.330Z,8.20
2023-02-17T05:17:21.890Z,8.17
2023-02-17T05:19:48.392Z,8.19
2023-02-17T05:22:14.848Z,8.16
2023-02-17T05:24:41.334Z,8.17
2023-02-17T05:27:08.029Z,8.20
2023-02-17T05:29:35.194Z,8.24
2023-02-17T05:32:01.719Z,8.21
2023-02-17T05:34:33.346Z,8.22
2023-02-17T05:36:59.837Z,8.19
2023-02-17T05:39:26.350Z,8.24
2023-02-17T05:41:53.015Z,8.20
2023-02-17T05:44:19.580Z,8.24
2023-02-17T05:46:46.200Z,8.26
2023-02-17T05:49:12.789Z,8.27
2023-02-17T05:51:39.481Z,8.31
2023-02-17T05:54:06.337Z,8.32
2023-02-17T05:56:32.927Z,8.33
2023-02-17T05:59:00.566Z,8.29
2023-02-17T06:01:27.607Z,8.28
2023-02-17T06:03:54.110Z,8.25
2023-02-17T06:06:20.658Z,8.29
2023-02-17T06:08:47.382Z,8.32
2023-02-17T06:11:13.865Z,8.31
2023-02-17T06:13:40.397Z,8.28
2023-02-17T06:16:07.422Z,8.28
2023-02-17T06:18:34.251Z,8.32
2023-02-17T06:21:00.936Z,8.31
2023-02-17T06:23:27.818Z,8.29
2023-02-17T06:25:54.712Z,8.31
2023-02-17T06:28:21.267Z,8.34
2023-02-17T06:30:47.843Z,8.34
2023-02-17T06:33:14.379Z,8.33
2023-02-17T06:35:40.958Z,8.37
2023-02-17T06:38:07.574Z,8.36
2023-02-17T06:40:34.056Z,8.29
2023-02-17T06:43:00.642Z,8.28
2023-02-17T06:45:29.860Z,8.33
2023-02-17T06:47:56.374Z,8.33
2023-02-17T06:50:27.971Z,8.25
2023-02-17T06:52:54.442Z,8.18
2023-02-17T06:55:23.560Z,8.15
2023-02-17T06:57:50.025Z,8.20
2023-02-17T07:00:16.889Z,8.25
2023-02-17T07:02:43.414Z,8.22
2023-02-17T07:05:10.036Z,8.23
2023-02-17T07:07:41.023Z,8.22
2023-02-17T07:10:08.343Z,8.29
2023-02-17T07:12:34.805Z,8.34
2023-02-17T07:15:01.286Z,8.40
2023-02-17T07:17:27.726Z,8.44
2023-02-17T07:19:54.237Z,8.48
2023-02-17T07:22:21.493Z,8.46
2023-02-17T07:24:47.923Z,8.38
2023-02-17T07:27:14.836Z,8.34
2023-02-17T07:29:41.297Z,8.37
2023-02-17T07:32:07.861Z,8.41
2023-02-17T07:34:36.827Z,8.43
2023-02-17T07:37:03.306Z,8.48
2023-02-17T07:39:29.903Z,8.53
2023-02-17T07:42:00.833Z,8.56
2023-02-17T07:44:28.389Z,8.57
2023-02-17T07:46:55.268Z,8.59
2023-02-17T07:49:21.713Z,8.60
2023-02-17T07:51:48.266Z,8.63
2023-02-17T07:54:15.293Z,8.61
2023-02-17T07:56:41.925Z,8.64
2023-02-17T07:59:16.329Z,8.59
2023-02-17T08:01:43.288Z,8.58
2023-02-17T08:04:09.923Z,8.58
2023-02-17T08:06:39.879Z,8.55
2023-02-17T08:09:25.297Z,8.49
2023-02-17T08:12:10.560Z,8.57
2023-02-17T08:14:38.326Z,8.66
2023-02-17T08:17:06.108Z,8.63
2023-02-17T08:19:47.060Z,8.61
2023-02-17T08:22:18.717Z,8.61
2023-02-17T08:24:45.556Z,8.60
2023-02-17T08:27:14.667Z,8.61
2023-02-17T08:29:41.957Z,8.67
2023-02-17T08:32:09.440Z,8.70
2023-02-17T08:34:36.545Z,8.71
2023-02-17T08:37:06.782Z,8.76
2023-02-17T08:39:35.281Z,8.72
2023-02-17T08:42:03.742Z,8.72
2023-02-17T08:44:30.368Z,8.74
2023-02-17T08:46:56.828Z,8.82
2023-02-17T08:49:28.451Z,8.83
2023-02-17T08:51:54.989Z,8.85
2023-02-17T08:54:21.807Z,8.89
2023-02-17T08:56:48.371Z,8.83
2023-02-17T08:59:15.116Z,8.86
2023-02-17T09:01:43.321Z,8.86
2023-02-17T09:04:13.813Z,8.95
2023-02-17T09:06:48.850Z,8.93
2023-02-17T09:09:22.536Z,9.00
2023-02-17T09:11:49.547Z,9.08
2023-02-17T09:14:16.305Z,9.08
2023-02-17T09:16:42.872Z,8.98
2023-02-17T09:19:09.428Z,9.05
2023-02-17T09:21:36.003Z,9.02
2023-02-17T09:24:02.508Z,9.07
2023-02-17T09:26:29.137Z,9.10
2023-02-17T09:28:55.728Z,9.13
2023-02-17T09:31:26.914Z,9.05
2023-02-17T09:33:54.478Z,9.11
2023-02-17T09:36:34.710Z,9.11
2023-02-17T09:39:01.728Z,9.20
2023-02-17T09:41:44.846Z,9.20
2023-02-17T09:44:40.731Z,9.26
2023-02-17T09:47:26.982Z,9.30
2023-02-17T09:50:03.080Z,9.34
2023-02-17T09:52:42.198Z,9.41
2023-02-17T09:55:30.620Z,9.49
2023-02-17T09:58:11.694Z,9.60
2023-02-17T10:00:50.193Z,9.63
2023-02-17T10:03:44.790Z,9.69
2023-02-17T10:06:24.660Z,9.75
2023-02-17T10:08:57.649Z,9.90
2023-02-17T10:11:36.206Z,9.93
2023-02-17T10:14:12.535Z,10.00
2023-02-17T10:16:51.649Z,10.13
2023-02-17T10:19:29.640Z,10.21
2023-02-17T10:22:08.643Z,10.30
2023-02-17T10:24:35.188Z,10.35
2023-02-17T10:27:48.497Z,10.32
2023-02-17T10:30:33.195Z,10.40
2023-02-17T10:33:17.504Z,10.42
2023-02-17T10:36:26.283Z,10.50
2023-02-17T10:39:11.686Z,10.61
2023-02-17T10:41:41.051Z,10.68
2023-02-17T10:44:19.918Z,10.69
2023-02-17T10:46:48.498Z,10.77
2023-02-17T10:49:38.268Z,10.86
2023-02-17T10:52:16.293Z,10.94
2023-02-17T10:54:54.086Z,11.01
2023-02-17T10:57:26.213Z,11.09
2023-02-17T10:59:53.821Z,11.13
2023-02-17T11:02:38.138Z,11.20
2023-02-17T11:05:06.060Z,11.27
2023-02-17T11:07:42.130Z,11.30
2023-02-17T11:10:30.412Z,11.23
2023-02-17T11:12:58.593Z,11.34
2023-02-17T11:15:35.451Z,11.41
2023-02-17T11:18:18.002Z,11.47
2023-02-17T11:20:44.676Z,11.54
2023-02-17T11:23:14.181Z,11.55
2023-02-17T11:25:42.116Z,11.66
2023-02-17T11:28:23.996Z,11.74
2023-02-17T11:30:58.418Z,11.76
2023-02-17T11:33:37.691Z,11.84
2023-02-17T11:36:08.226Z,11.90
2023-02-17T11:38:45.671Z,11.93
2023-02-17T11:41:12.284Z,11.98
2023-02-17T11:43:54.252Z,11.98
2023-02-17T11:46:36.073Z,12.06
2023-02-17T11:49:31.087Z,12.05
2023-02-17T11:52:24.046Z,11.97
2023-02-17T11:55:24.487Z,11.86
2023-02-17T11:58:24.058Z,11.91
2023-02-17T12:01:16.447Z,12.08
2023-02-17T12:04:24.660Z,12.06
2023-02-17T12:07:21.659Z,12.09
2023-02-17T12:10:05.593Z,12.20
2023-02-17T12:12:55.462Z,12.38
2023-02-17T12:15:48.648Z,12.50
2023-02-17T12:18:42.612Z,12.74
2023-02-17T12:21:54.079Z,12.75
2023-02-17T12:25:03.529Z,12.76
2023-02-17T12:27:57.975Z,12.84
2023-02-17T12:30:55.154Z,12.71
2023-02-17T12:33:53.846Z,13.01
2023-02-17T12:36:25.795Z,13.13
2023-02-17T12:39:09.784Z,13.22
2023-02-17T12:41:56.620Z,13.12
2023-02-17T12:44:37.673Z,13.21
2023-02-17T12:47:17.486Z,13.27
2023-02-17T12:50:02.776Z,13.45
2023-02-17T12:52:38.994Z,13.52
2023-02-17T12:55:20.636Z,13.58
2023-02-17T12:57:57.988Z,13.66
2023-02-17T13:00:34.303Z,13.58
2023-02-17T13:03:07.596Z,13.56
2023-02-17T13:05:47.608Z,13.37
2023-02-17T13:08:29.331Z,13.38
2023-02-17T13:11:14.383Z,13.26
2023-02-17T13:13:40.890Z,13.46
2023-02-17T13:16:14.808Z,13.46
2023-02-17T13:18:45.321Z,13.42
2023-02-17T13:21:22.636Z,13.32
2023-02-17T13:24:12.923Z,13.28
2023-02-17T13:26:43.044Z,13.36
2023-02-17T13:29:24.428Z,13.41
2023-02-17T13:31:58.133Z,13.40
2023-02-17T13:34:31.010Z,13.59
2023-02-17T13:36:58.889Z,13.67
2023-02-17T13:39:28.410Z,13.60
2023-02-17T13:42:00.743Z,13.38
2023-02-17T13:44:33.571Z,13.50
2023-02-17T13:47:07.430Z,13.61
2023-02-17T13:49:35.130Z,13.36
2023-02-17T13:52:23.793Z,13.26
2023-02-17T13:55:03.820Z,13.19
2023-02-17T13:57:36.660Z,13.24
2023-02-17T14:00:13.088Z,13.24
2023-02-17T14:02:50.712Z,13.50
2023-02-17T14:05:40.324Z,13.58
2023-02-17T14:08:17.173Z,13.52
2023-02-17T14:10:44.748Z,13.52
2023-02-17T14:13:15.210Z,13.41
2023-02-17T14:15:58.476Z,13.45
2023-02-17T14:18:41.880Z,13.27
2023-02-17T14:21:25.052Z,13.31
2023-02-17T14:23:55.022Z,13.38
2023-02-17T14:26:39.287Z,13.30
2023-02-17T14:29:10.955Z,13.35
2023-02-17T14:31:46.976Z,13.58
2023-02-17T14:34:30.474Z,13.37
2023-02-17T14:37:18.511Z,13.00
2023-02-17T14:39:45.111Z,13.07
2023-02-17T14:42:11.658Z,13.10
2023-02-17T14:44:39.539Z,13.06
2023-02-17T14:47:06.716Z,13.07
2023-02-17T14:49:33.210Z,12.94
2023-02-17T14:52:20.680Z,12.86
2023-02-17T14:54:47.257Z,12.96
2023-02-17T14:57:15.825Z,13.02
2023-02-17T14:59:43.037Z,13.04
2023-02-17T15:02:17.726Z,13.02
2023-02-17T15:04:44.321Z,12.88
2023-02-17T15:07:17.464Z,12.94
2023-02-17T15:09:47.360Z,12.84
2023-02-17T15:12:20.949Z,12.90
2023-02-17T15:14:48.443Z,12.95
2023-02-17T15:17:16.464Z,12.89
2023-02-17T15:19:44.740Z,12.93
2023-02-17T15:22:13.556Z,12.83
2023-02-17T15:24:41.220Z,12.73
2023-02-17T15:27:14.061Z,12.66
2023-02-17T15:29:41.023Z,12.82
2023-02-17T15:32:18.866Z,12.76
2023-02-17T15:34:46.357Z,12.80
2023-02-17T15:37:12.849Z,12.92
2023-02-17T15:39:40.439Z,13.00
2023-02-17T15:42:13.653Z,12.98
2023-02-17T15:44:47.698Z,13.07
2023-02-17T15:47:19.507Z,12.86
2023-02-17T15:49:46.511Z,12.99
2023-02-17T15:52:15.055Z,12.94
2023-02-17T15:54:42.658Z,12.82
2023-02-17T15:57:22.012Z,12.75
2023-02-17T15:59:49.151Z,12.67
2023-02-17T16:02:23.196Z,12.64
2023-02-17T16:04:50.347Z,12.67
2023-02-17T16:07:25.586Z,12.53
2023-02-17T16:09:52.136Z,12.37
2023-02-17T16:12:27.001Z,12.04
2023-02-17T16:14:54.573Z,12.22
2023-02-17T16:17:21.077Z,12.34
2023-02-17T16:19:47.669Z,12.10
2023-02-17T16:22:14.350Z,11.90
2023-02-17T16:24:40.817Z,11.94
2023-02-17T16:27:14.373Z,11.56
2023-02-17T16:29:42.651Z,11.78
2023-02-17T16:32:13.552Z,11.70
2023-02-17T16:34:40.643Z,11.80
2023-02-17T16:37:16.231Z,11.85
2023-02-17T16:39:44.259Z,11.69
2023-02-17T16:42:12.266Z,11.60
2023-02-17T16:44:38.978Z,11.59
2023-02-17T16:47:07.931Z,11.68
2023-02-17T16:49:39.771Z,11.61
2023-02-17T16:52:23.388Z,11.55
2023-02-17T16:54:49.896Z,11.43
2023-02-17T16:57:19.049Z,11.26
2023-02-17T16:59:46.847Z,11.33
2023-02-17T17:02:13.755Z,11.18
2023-02-17T17:04:40.345Z,11.15
2023-02-17T17:07:07.870Z,11.14
2023-02-17T17:09:34.573Z,11.13
2023-02-17T17:12:01.080Z,11.10
2023-02-17T17:14:27.600Z,11.09
2023-02-17T17:17:01.380Z,11.13
2023-02-17T17:19:30.487Z,11.09
2023-02-17T17:21:56.975Z,10.93
2023-02-17T17:24:23.529Z,10.79
2023-02-17T17:26:51.476Z,10.68
2023-02-17T17:29:19.634Z,10.62
2023-02-17T17:31:47.056Z,10.44
2023-02-17T17:34:13.965Z,10.37
2023-02-17T17:36:45.116Z,10.36
2023-02-17T17:39:23.962Z,10.21
2023-02-17T17:41:51.385Z,10.35
2023-02-17T17:44:18.928Z,10.35
2023-02-17T17:46:45.452Z,10.39
2023-02-17T17:49:18.077Z,10.51
2023-02-17T17:51:44.815Z,10.46
2023-02-17T17:54:11.955Z,10.41
2023-02-17T17:56:47.872Z,10.43
2023-02-17T17:59:14.751Z,10.46
2023-02-17T18:01:42.767Z,10.41
2023-02-17T18:04:11.102Z,10.40
2023-02-17T18:06:41.646Z,10.43
2023-02-17T18:09:25.735Z,10.58
2023-02-17T18:12:04.337Z,10.38
2023-02-17T18:14:31.896Z,10.41
2023-02-17T18:17:01.645Z,10.38
2023-02-17T18:19:31.550Z,10.49
2023-02-17T18:21:58.119Z,10.53
2023-02-17T18:24:24.607Z,10.50
2023-02-17T18:26:52.178Z,10.46
2023-02-17T18:29:19.829Z,10.41
2023-02-17T18:31:47.015Z,10.48
2023-02-17T18:34:13.787Z,10.50
2023-02-17T18:36:40.423Z,10.59
2023-02-17T18:39:06.965Z,10.47
2023-02-17T18:41:35.438Z,10.55
2023-02-17T18:44:04.696Z,10.56
2023-02-17T18:46:33.154Z,10.55
2023-02-17T18:49:00.757Z,10.53
2023-02-17T18:51:27.685Z,10.42
2023-02-17T18:53:56.493Z,10.47
2023-02-17T18:56:27.205Z,10.49
2023-02-17T18:58:57.937Z,10.48
2023-02-17T19:01:32.624Z,10.42
2023-02-17T19:03:59.506Z,10.51
2023-02-17T19:06:32.308Z,10.43
2023-02-17T19:09:06.312Z,10.36
2023-02-17T19:11:34.780Z,10.38
2023-02-17T19:14:02.941Z,10.37
2023-02-17T19:16:32.553Z,10.37
2023-02-17T19:19:00.020Z,10.42
2023-02-17T19:21:26.665Z,10.35
2023-02-17T19:23:53.942Z,10.33
2023-02-17T19:26:21.375Z,10.39
2023-02-17T19:28:48.591Z,10.53
2023-02-17T19:31:21.769Z,10.47
2023-02-17T19:33:48.554Z,10.42
2023-02-17T19:36:19.329Z,10.38
2023-02-17T19:38:48.274Z,10.55
2023-02-17T19:41:15.981Z,10.43
2023-02-17T19:43:43.673Z,10.29
2023-02-17T19:46:18.046Z,10.19
2023-02-17T19:48:44.586Z,10.30
2023-02-17T19:51:14.838Z,10.37
2023-02-17T19:53:43.364Z,10.42
2023-02-17T19:56:23.837Z,10.18
2023-02-17T19:58:51.208Z,10.22
2023-02-17T20:01:31.584Z,10.21
2023-02-17T20:04:01.363Z,10.28
2023-02-17T20:06:48.037Z,10.24
2023-02-17T20:09:20.124Z,10.16
2023-02-17T20:11:48.775Z,10.15
2023-02-17T20:14:15.841Z,10.13
2023-02-17T20:16:42.443Z,10.13
2023-02-17T20:19:09.139Z,10.15
2023-02-17T20:21:38.436Z,10.10
2023-02-17T20:24:05.613Z,10.17
2023-02-17T20:26:39.202Z,10.20
2023-02-17T20:29:05.982Z,10.23
2023-02-17T20:31:34.504Z,10.10
2023-02-17T20:34:04.058Z,10.19
2023-02-17T20:36:30.716Z,9.88
2023-02-17T20:38:57.319Z,10.01
2023-02-17T20:41:24.376Z,10.03
2023-02-17T20:43:52.481Z,10.18
2023-02-17T20:46:27.134Z,10.19
2023-02-17T20:48:54.307Z,10.19
2023-02-17T20:51:21.277Z,10.26
2023-02-17T20:53:48.518Z,10.28
2023-02-17T20:56:20.217Z,10.15
2023-02-17T20:58:47.267Z,10.23
2023-02-17T21:01:14.616Z,10.12
2023-02-17T21:03:41.157Z,9.94
2023-02-17T21:06:22.043Z,9.94
2023-02-17T21:08:55.884Z,9.90
2023-02-17T21:11:24.210Z,9.98
2023-02-17T21:13:50.827Z,9.98
2023-02-17T21:16:22.876Z,9.89
2023-02-17T21:18:49.380Z,10.00
2023-02-17T21:21:16.552Z,10.08
2023-02-17T21:23:43.500Z,10.16
2023-02-17T21:26:12.869Z,10.08
2023-02-17T21:28:39.577Z,9.84
2023-02-17T21:31:07.137Z,10.02
2023-02-17T21:33:34.180Z,10.08
2023-02-17T21:36:05.777Z,10.05
2023-02-17T21:38:32.493Z,10.05
2023-02-17T21:41:06.834Z,10.08
2023-02-17T21:43:51.815Z,10.15
2023-02-17T21:46:19.782Z,10.20
2023-02-17T21:48:46.224Z,10.10
2023-02-17T21:51:12.857Z,10.06
2023-02-17T21:53:39.831Z,9.93
2023-02-17T21:56:07.228Z,10.02
2023-02-17T21:58:34.612Z,10.07
2023-02-17T22:01:01.205Z,9.86
2023-02-17T22:03:27.955Z,9.87
2023-02-17T22:05:54.485Z,9.84
2023-02-17T22:08:21.159Z,9.90
2023-02-17T22:10:47.978Z,9.98
2023-02-17T22:13:14.480Z,9.85
2023-02-17T22:15:41.440Z,9.85
2023-02-17T22:18:07.909Z,9.85
2023-02-17T22:20:35.554Z,9.86
2023-02-17T22:23:02.012Z,9.93
2023-02-17T22:25:28.724Z,9.89
2023-02-17T22:27:55.197Z,9.93
2023-02-17T22:30:21.673Z,9.96
2023-02-17T22:32:48.174Z,9.92
2023-02-17T22:35:15.031Z,9.85
2023-02-17T22:37:41.541Z,9.82
2023-02-17T22:40:08.813Z,9.81
2023-02-17T22:42:35.276Z,9.78
2023-02-17T22:45:01.739Z,9.82
2023-02-17T22:47:28.234Z,9.85
2023-02-17T22:49:54.727Z,9.77
2023-02-17T22:52:21.235Z,9.87
2023-02-17T22:54:48.297Z,9.77
2023-02-17T22:57:14.852Z,9.82
2023-02-17T22:59:41.332Z,9.79
2023-02-17T23:02:07.856Z,9.70
2023-02-17T23:04:34.428Z,9.72
2023-02-17T23:07:00.947Z,9.72
2023-02-17T23:09:27.599Z,9.71
2023-02-17T23:11:58.233Z,9.78
2023-02-17T23:14:26.465Z,9.75
2023-02-17T23:16:58.043Z,9.83
2023-02-17T23:19:25.062Z,9.77
2023-02-17T23:21:58.462Z,9.71
2023-02-17T23:24:26.979Z,9.63
2023-02-17T23:26:56.251Z,9.71
2023-02-17T23:29:23.378Z,9.70
2023-02-17T23:31:49.953Z,9.73
2023-02-17T23:34:17.085Z,9.78
2023-02-17T23:36:45.679Z,9.86
2023-02-17T23:39:15.037Z,9.71
2023-02-17T23:41:41.524Z,9.74
2023-02-17T23:44:10.624Z,9.64
2023-02-17T23:46:38.324Z,9.64
2023-02-17T23:49:06.003Z,9.59
2023-02-17T23:51:32.807Z,9.50
2023-02-17T23:54:00.538Z,9.52
2023-02-17T23:56:34.485Z,9.54
2023-02-17T23:59:01.564Z,9.64
